createdAt,value
2017-11-09T00:01:34.844Z,7.78
2017-11-09T00:04:08.848Z,7.77
2017-11-09T00:06:37.375Z,7.77
2017-11-09T00:09:05.723Z,7.76
2017-11-09T00:11:34.472Z,7.76
2017-11-09T00:14:03.168Z,7.77
2017-11-09T00:16:34.880Z,7.76
2017-11-09T00:19:03.534Z,7.77
2017-11-09T00:21:32.233Z,7.76
2017-11-09T00:24:00.892Z,7.75
2017-11-09T00:26:29.788Z,7.75
2017-11-09T00:28:58.444Z,7.74
2017-11-09T00:31:27.183Z,7.73
2017-11-09T00:33:55.880Z,7.74
2017-11-09T00:36:24.552Z,7.73
2017-11-09T00:38:53.222Z,7.73
2017-11-09T00:41:22.887Z,7.74
2017-11-09T00:43:51.604Z,7.73
2017-11-09T00:46:20.316Z,7.73
2017-11-09T00:48:48.986Z,7.73
2017-11-09T00:51:17.627Z,7.73
2017-11-09T00:53:46.332Z,7.73
2017-11-09T00:56:15.010Z,7.73
2017-11-09T00:58:43.711Z,7.73
2017-11-09T01:01:16.126Z,7.72
2017-11-09T01:03:45.045Z,7.72
2017-11-09T01:06:13.695Z,7.71
2017-11-09T01:08:42.386Z,7.71
2017-11-09T01:11:11.117Z,7.71
2017-11-09T01:13:39.798Z,7.72
2017-11-09T01:16:08.490Z,7.71
2017-11-09T01:18:37.648Z,7.70
2017-11-09T01:21:06.294Z,7.71
2017-11-09T01:23:35.026Z,7.71
2017-11-09T01:26:03.674Z,7.70
2017-11-09T01:28:32.327Z,7.70
2017-11-09T01:31:01.028Z,7.71
2017-11-09T01:33:29.689Z,7.69
2017-11-09T01:35:58.973Z,7.69
2017-11-09T01:38:27.624Z,7.68
2017-11-09T01:40:56.279Z,7.68
2017-11-09T01:43:25.024Z,7.68
2017-11-09T01:45:53.721Z,7.68
2017-11-09T01:48:22.444Z,7.68
2017-11-09T01:50:51.378Z,7.69
2017-11-09T01:53:20.089Z,7.68
2017-11-09T01:55:48.859Z,7.68
2017-11-09T01:58:17.603Z,7.67
2017-11-09T02:00:46.304Z,7.68
2017-11-09T02:03:14.999Z,7.68
2017-11-09T02:05:44.400Z,7.67
2017-11-09T02:08:13.055Z,7.67
2017-11-09T02:10:41.772Z,7.67
2017-11-09T02:13:10.439Z,7.66
2017-11-09T02:15:39.150Z,7.67
2017-11-09T02:18:07.860Z,7.66
2017-11-09T02:20:36.231Z,7.67
2017-11-09T02:23:05.142Z,7.66
2017-11-09T02:25:33.516Z,7.67
2017-11-09T02:28:02.229Z,7.67
2017-11-09T02:30:30.640Z,7.67
2017-11-09T02:32:59.162Z,7.66
2017-11-09T02:35:27.872Z,7.67
2017-11-09T02:37:56.250Z,7.66
2017-11-09T02:40:24.929Z,7.66
2017-11-09T02:42:53.701Z,7.66
2017-11-09T02:45:22.364Z,7.66
2017-11-09T02:47:51.080Z,7.66
2017-11-09T02:50:19.778Z,7.65
2017-11-09T02:52:48.439Z,7.65
2017-11-09T02:55:16.876Z,7.65
2017-11-09T02:57:45.564Z,7.65
2017-11-09T03:00:13.970Z,7.65
2017-11-09T03:02:42.628Z,7.65
2017-11-09T03:05:11.285Z,7.66
2017-11-09T03:07:40.073Z,7.66
2017-11-09T03:10:08.775Z,7.65
2017-11-09T03:12:37.453Z,7.65
2017-11-09T03:15:06.163Z,7.64
2017-11-09T03:17:34.840Z,7.64
2017-11-09T03:20:03.550Z,7.65
2017-11-09T03:22:32.226Z,7.65
2017-11-09T03:25:00.938Z,7.65
2017-11-09T03:27:29.633Z,7.66
2017-11-09T03:29:58.322Z,7.65
2017-11-09T03:32:27.299Z,7.65
2017-11-09T03:34:55.964Z,7.66
2017-11-09T03:37:24.633Z,7.65
2017-11-09T03:39:53.349Z,7.64
2017-11-09T03:42:22.011Z,7.65
2017-11-09T03:44:50.719Z,7.64
2017-11-09T03:47:19.483Z,7.64
2017-11-09T03:49:48.145Z,7.65
2017-11-09T03:52:16.860Z,7.64
2017-11-09T03:54:45.540Z,7.64
2017-11-09T03:57:14.202Z,7.64
2017-11-09T03:59:42.904Z,7.63
2017-11-09T04:02:11.540Z,7.64
2017-11-09T04:04:40.187Z,7.64
2017-11-09T04:07:10.314Z,7.65
2017-11-09T04:09:38.952Z,7.64
2017-11-09T04:12:07.696Z,7.64
2017-11-09T04:14:36.355Z,7.64
2017-11-09T04:17:08.043Z,7.63
2017-11-09T04:19:36.735Z,7.65
2017-11-09T04:22:05.429Z,7.64
2017-11-09T04:24:34.139Z,7.64
2017-11-09T04:27:09.235Z,7.64
2017-11-09T04:29:37.896Z,7.64
2017-11-09T04:32:06.622Z,7.63
2017-11-09T04:34:35.264Z,7.63
2017-11-09T04:37:03.936Z,7.63
2017-11-09T04:39:32.729Z,7.63
2017-11-09T04:42:01.840Z,7.63
2017-11-09T04:50:05.717Z,7.61
2017-11-09T04:52:39.231Z,7.61
2017-11-09T04:55:11.632Z,7.61
2017-11-09T04:57:45.733Z,7.61
2017-11-09T05:00:18.741Z,7.61
2017-11-09T05:02:47.475Z,7.61
2017-11-09T05:05:16.128Z,7.61
2017-11-09T05:07:44.772Z,7.62
2017-11-09T05:10:13.466Z,7.62
2017-11-09T05:12:42.274Z,7.61
2017-11-09T05:15:10.942Z,7.61
2017-11-09T05:17:39.594Z,7.61
2017-11-09T05:20:08.875Z,7.61
2017-11-09T05:22:37.545Z,7.61
2017-11-09T05:25:06.243Z,7.61
2017-11-09T05:27:34.929Z,7.61
2017-11-09T05:30:04.538Z,7.60
2017-11-09T05:32:33.457Z,7.60
2017-11-09T05:35:04.040Z,7.60
2017-11-09T05:37:32.734Z,7.59
2017-11-09T05:40:01.395Z,7.59
2017-11-09T05:42:30.132Z,7.59
2017-11-09T05:44:58.855Z,7.60
2017-11-09T05:47:27.577Z,7.60
2017-11-09T05:49:56.295Z,7.59
2017-11-09T05:52:24.991Z,7.59
2017-11-09T05:54:53.641Z,7.59
2017-11-09T05:57:22.309Z,7.59
2017-11-09T05:59:51.044Z,7.60
2017-11-09T06:02:25.955Z,7.59
2017-11-09T06:04:56.133Z,7.59
2017-11-09T06:07:24.912Z,7.60
2017-11-09T06:09:53.581Z,7.60
2017-11-09T06:12:22.288Z,7.59
2017-11-09T06:14:51.021Z,7.59
2017-11-09T06:17:19.711Z,7.58
2017-11-09T06:19:48.404Z,7.58
2017-11-09T06:22:17.068Z,7.58
2017-11-09T06:24:45.771Z,7.58
2017-11-09T06:27:14.435Z,7.58
2017-11-09T06:29:43.127Z,7.58
2017-11-09T06:32:11.776Z,7.56
2017-11-09T06:34:40.471Z,7.57
2017-11-09T06:37:09.136Z,7.57
2017-11-09T06:39:37.827Z,7.58
2017-11-09T06:42:06.487Z,7.58
2017-11-09T06:44:35.195Z,7.58
2017-11-09T06:47:07.088Z,7.58
2017-11-09T06:49:35.808Z,7.58
2017-11-09T06:52:04.465Z,7.56
2017-11-09T06:54:33.119Z,7.56
2017-11-09T06:57:04.388Z,7.55
2017-11-09T06:59:33.163Z,7.55
2017-11-09T07:02:01.867Z,7.57
2017-11-09T07:04:30.570Z,7.56
2017-11-09T07:06:59.220Z,7.56
2017-11-09T07:09:28.158Z,7.55
2017-11-09T07:11:56.840Z,7.56
2017-11-09T07:14:25.499Z,7.55
2017-11-09T07:16:54.212Z,7.55
2017-11-09T07:19:22.906Z,7.56
2017-11-09T07:21:51.567Z,7.55
2017-11-09T07:24:20.364Z,7.55
2017-11-09T07:26:49.051Z,7.55
2017-11-09T07:29:17.712Z,7.55
2017-11-09T07:31:46.148Z,7.55
2017-11-09T07:34:14.826Z,7.55
2017-11-09T07:36:43.531Z,7.56
2017-11-09T07:39:12.238Z,7.56
2017-11-09T07:41:40.891Z,7.56
2017-11-09T07:44:09.587Z,7.58
2017-11-09T07:46:38.258Z,7.58
2017-11-09T07:49:06.951Z,7.59
2017-11-09T07:51:35.814Z,7.59
2017-11-09T07:54:04.519Z,7.60
2017-11-09T07:56:33.186Z,7.60
2017-11-09T07:59:01.702Z,7.60
2017-11-09T08:01:30.400Z,7.60
2017-11-09T08:03:59.055Z,7.61
2017-11-09T08:06:27.753Z,7.61
2017-11-09T08:08:56.460Z,7.62
2017-11-09T08:11:25.116Z,7.63
2017-11-09T08:13:53.832Z,7.62
2017-11-09T08:16:22.527Z,7.64
2017-11-09T08:18:51.170Z,7.64
2017-11-09T08:21:19.869Z,7.65
2017-11-09T08:23:48.520Z,7.64
2017-11-09T08:26:17.993Z,7.65
2017-11-09T08:28:51.034Z,7.67
2017-11-09T08:31:32.749Z,7.68
2017-11-09T08:34:11.594Z,7.68
2017-11-09T08:36:40.755Z,7.69
2017-11-09T08:39:09.461Z,7.70
2017-11-09T08:41:38.355Z,7.71
2017-11-09T08:44:07.013Z,7.72
2017-11-09T08:46:35.919Z,7.73
2017-11-09T08:49:04.618Z,7.73
2017-11-09T08:51:33.375Z,7.75
2017-11-09T08:54:02.059Z,7.75
2017-11-09T08:56:30.705Z,7.75
2017-11-09T08:58:59.531Z,7.76
2017-11-09T09:01:28.177Z,7.78
2017-11-09T09:03:56.877Z,7.80
2017-11-09T09:06:25.524Z,7.81
2017-11-09T09:08:54.163Z,7.82
2017-11-09T09:11:22.719Z,7.84
2017-11-09T09:13:51.249Z,7.85
2017-11-09T09:16:19.827Z,7.88
2017-11-09T09:18:48.331Z,7.90
2017-11-09T09:21:27.729Z,7.93
2017-11-09T09:27:09.433Z,7.99
2017-11-09T09:29:39.351Z,8.02
2017-11-09T09:32:07.864Z,8.04
2017-11-09T09:37:56.541Z,8.12
2017-11-09T09:40:28.541Z,8.14
2017-11-09T09:42:57.104Z,8.18
2017-11-09T09:45:25.681Z,8.18
2017-11-09T09:47:54.239Z,8.22
2017-11-09T09:50:22.776Z,8.24
2017-11-09T09:52:51.490Z,8.25
2017-11-09T09:55:20.009Z,8.30
2017-11-09T09:57:48.578Z,8.33
2017-11-09T10:00:17.171Z,8.34
2017-11-09T10:02:45.823Z,8.35
2017-11-09T10:05:14.493Z,8.37
2017-11-09T10:07:43.247Z,8.40
2017-11-09T10:10:11.756Z,8.41
2017-11-09T10:12:40.527Z,8.43
2017-11-09T10:15:09.190Z,8.45
2017-11-09T10:17:37.836Z,8.46
2017-11-09T10:20:06.535Z,8.46
2017-11-09T10:22:35.526Z,8.48
2017-11-09T10:25:04.184Z,8.49
2017-11-09T10:27:32.900Z,8.50
2017-11-09T10:30:01.550Z,8.52
2017-11-09T10:32:31.078Z,8.53
2017-11-09T10:34:59.784Z,8.54
2017-11-09T10:37:28.427Z,8.55
2017-11-09T10:39:57.128Z,8.57
2017-11-09T10:42:25.796Z,8.57
2017-11-09T10:44:54.446Z,8.60
2017-11-09T10:47:23.132Z,8.61
2017-11-09T10:49:51.471Z,8.63
2017-11-09T10:52:20.215Z,8.66
2017-11-09T10:54:48.865Z,8.66
2017-11-09T10:57:17.551Z,8.69
2017-11-09T10:59:46.271Z,8.71
2017-11-09T11:02:17.766Z,8.73
2017-11-09T11:04:46.494Z,8.74
2017-11-09T11:07:15.177Z,8.76
2017-11-09T11:09:43.906Z,8.78
2017-11-09T11:12:12.554Z,8.80
2017-11-09T11:14:41.249Z,8.81
2017-11-09T11:17:09.919Z,8.82
2017-11-09T11:19:38.638Z,8.83
2017-11-09T11:22:07.300Z,8.85
2017-11-09T11:24:35.965Z,8.86
2017-11-09T11:27:08.752Z,8.85
2017-11-09T11:29:37.423Z,8.89
2017-11-09T11:32:06.192Z,8.91
2017-11-09T11:34:34.845Z,8.94
2017-11-09T11:37:06.750Z,8.90
2017-11-09T11:39:35.468Z,8.94
2017-11-09T11:42:04.115Z,8.94
2017-11-09T11:44:32.829Z,8.96
2017-11-09T11:47:06.217Z,8.98
2017-11-09T11:49:34.921Z,8.99
2017-11-09T11:52:03.575Z,9.01
2017-11-09T11:54:32.228Z,9.01
2017-11-09T11:57:04.752Z,9.05
2017-11-09T11:59:33.956Z,9.05
2017-11-09T12:02:02.674Z,9.08
2017-11-09T12:04:31.339Z,9.08
2017-11-09T12:06:59.990Z,9.09
2017-11-09T12:09:28.686Z,9.11
2017-11-09T12:12:00.305Z,9.12
2017-11-09T12:14:29.020Z,9.14
2017-11-09T12:16:57.678Z,9.17
2017-11-09T12:19:26.512Z,9.19
2017-11-09T12:21:55.216Z,9.20
2017-11-09T12:24:23.880Z,9.22
2017-11-09T12:26:52.577Z,9.24
2017-11-09T12:29:21.225Z,9.25
2017-11-09T12:31:49.399Z,9.26
2017-11-09T12:34:18.109Z,9.30
2017-11-09T12:36:46.805Z,9.32
2017-11-09T12:39:15.521Z,9.33
2017-11-09T12:41:44.187Z,9.35
2017-11-09T12:44:12.840Z,9.35
2017-11-09T12:46:41.575Z,9.35
2017-11-09T12:49:10.275Z,9.36
2017-11-09T12:51:38.943Z,9.35
2017-11-09T12:54:07.683Z,9.37
2017-11-09T12:56:36.381Z,9.36
2017-11-09T12:59:05.085Z,9.38
2017-11-09T13:01:33.746Z,9.39
2017-11-09T13:04:02.428Z,9.40
2017-11-09T13:06:30.990Z,9.42
2017-11-09T13:08:59.701Z,9.42
2017-11-09T13:11:28.377Z,9.44
2017-11-09T13:13:57.082Z,9.46
2017-11-09T13:16:25.599Z,9.44
2017-11-09T13:18:54.151Z,9.47
2017-11-09T13:21:22.734Z,9.48
2017-11-09T13:23:51.464Z,9.48
2017-11-09T13:26:20.135Z,9.49
2017-11-09T13:28:48.815Z,9.49
2017-11-09T13:31:17.392Z,9.50
2017-11-09T13:33:46.911Z,9.49
2017-11-09T13:36:15.672Z,9.51
2017-11-09T13:38:44.458Z,9.50
2017-11-09T13:41:13.100Z,9.51
2017-11-09T13:43:41.796Z,9.52
2017-11-09T13:46:10.493Z,9.52
2017-11-09T13:48:39.209Z,9.53
2017-11-09T13:51:07.860Z,9.52
2017-11-09T13:53:36.521Z,9.53
2017-11-09T13:56:05.213Z,9.52
2017-11-09T13:58:33.881Z,9.51
2017-11-09T14:01:02.595Z,9.52
2017-11-09T14:03:31.267Z,9.52
2017-11-09T14:05:59.920Z,9.52
2017-11-09T14:08:46.399Z,9.52
2017-11-09T14:11:28.159Z,9.50
2017-11-09T14:14:11.365Z,9.49
2017-11-09T14:16:51.356Z,9.49
2017-11-09T14:19:36.835Z,9.49
2017-11-09T14:25:10.450Z,9.47
2017-11-09T14:27:53.685Z,9.45
2017-11-09T14:30:40.785Z,9.44
2017-11-09T14:33:25.884Z,9.42
2017-11-09T14:36:09.733Z,9.41
2017-11-09T14:39:02.454Z,9.40
2017-11-09T14:41:40.826Z,9.39
2017-11-09T14:44:24.101Z,9.39
2017-11-09T14:46:55.928Z,9.37
2017-11-09T14:49:39.464Z,9.36
2017-11-09T14:52:19.227Z,9.34
2017-11-09T14:55:00.350Z,9.31
2017-11-09T14:57:38.677Z,9.29
2017-11-09T15:00:20.196Z,9.29
2017-11-09T15:03:00.149Z,9.27
2017-11-09T15:05:47.145Z,9.23
2017-11-09T15:11:14.923Z,9.20
2017-11-09T15:13:59.179Z,9.20
2017-11-09T15:16:43.590Z,9.17
2017-11-09T15:19:23.612Z,9.16
2017-11-09T15:22:07.140Z,9.13
2017-11-09T15:24:56.930Z,9.11
2017-11-09T15:27:43.317Z,9.09
2017-11-09T15:30:28.933Z,9.06
2017-11-09T15:33:16.145Z,9.03
2017-11-09T15:36:15.402Z,9.02
2017-11-09T15:39:00.053Z,8.99
2017-11-09T15:41:44.144Z,8.95
2017-11-09T15:44:29.061Z,8.94
2017-11-09T15:50:07.535Z,8.90
2017-11-09T15:52:47.692Z,8.86
2017-11-09T15:58:18.105Z,8.82
2017-11-09T16:01:02.476Z,8.79
2017-11-09T16:03:45.770Z,8.77
2017-11-09T16:09:14.254Z,8.73
2017-11-09T16:11:56.860Z,8.71
2017-11-09T16:14:39.229Z,8.70
2017-11-09T16:17:21.545Z,8.66
2017-11-09T16:20:06.715Z,8.64
2017-11-09T16:22:48.437Z,8.63
2017-11-09T16:25:30.324Z,8.61
2017-11-09T16:28:08.672Z,8.60
2017-11-09T16:31:00.801Z,8.58
2017-11-09T16:33:43.669Z,8.56
2017-11-09T16:36:19.309Z,8.55
2017-11-09T16:39:00.455Z,8.54
2017-11-09T16:41:45.581Z,8.53
2017-11-09T16:44:29.630Z,8.53
2017-11-09T16:47:19.369Z,8.53
2017-11-09T16:49:58.331Z,8.52
2017-11-09T16:52:35.892Z,8.50
2017-11-09T16:55:18.492Z,8.50
2017-11-09T16:58:02.186Z,8.51
2017-11-09T17:00:41.029Z,8.50
2017-11-09T17:03:24.257Z,8.48
2017-11-09T17:06:04.119Z,8.48
2017-11-09T17:08:47.062Z,8.50
2017-11-09T17:11:31.628Z,8.50
2017-11-09T17:14:18.472Z,8.50
2017-11-09T17:17:03.999Z,8.49
2017-11-09T17:19:45.812Z,8.48
2017-11-09T17:25:18.307Z,8.46
2017-11-09T17:28:03.364Z,8.46
2017-11-09T17:30:48.623Z,8.47
2017-11-09T17:33:33.722Z,8.49
2017-11-09T17:36:19.219Z,8.48
2017-11-09T17:39:06.169Z,8.43
2017-11-09T17:41:49.805Z,8.43
2017-11-09T17:44:36.803Z,8.43
2017-11-09T17:47:23.784Z,8.44
2017-11-09T17:50:04.234Z,8.44
2017-11-09T17:52:48.744Z,8.44
2017-11-09T17:55:28.877Z,8.44
2017-11-09T17:58:11.127Z,8.46
2017-11-09T18:00:53.018Z,8.44
2017-11-09T18:03:37.341Z,8.44
2017-11-09T18:06:22.034Z,8.45
2017-11-09T18:09:10.135Z,8.46
2017-11-09T18:11:52.694Z,8.43
2017-11-09T18:14:38.866Z,8.44
2017-11-09T18:17:22.982Z,8.43
2017-11-09T18:20:06.082Z,8.43
2017-11-09T18:22:56.263Z,8.44
2017-11-09T18:25:39.856Z,8.41
2017-11-09T18:28:21.931Z,8.43
2017-11-09T18:31:08.375Z,8.43
2017-11-09T18:33:53.989Z,8.43
2017-11-09T18:36:40.193Z,8.44
2017-11-09T18:39:28.651Z,8.41
2017-11-09T18:42:17.762Z,8.39
2017-11-09T18:45:02.731Z,8.39
2017-11-09T18:47:51.030Z,8.39
2017-11-09T18:50:37.409Z,8.38
2017-11-09T18:53:23.783Z,8.39
2017-11-09T18:56:08.911Z,8.37
2017-11-09T18:58:54.546Z,8.37
2017-11-09T19:01:38.715Z,8.37
2017-11-09T19:04:22.942Z,8.37
2017-11-09T19:07:07.043Z,8.37
2017-11-09T19:09:52.761Z,8.38
2017-11-09T19:12:38.700Z,8.35
2017-11-09T19:15:18.881Z,8.36
2017-11-09T19:18:03.493Z,8.36
2017-11-09T19:20:46.330Z,8.36
2017-11-09T19:23:29.621Z,8.36
2017-11-09T19:26:12.985Z,8.36
2017-11-09T19:28:55.515Z,8.35
2017-11-09T19:31:38.678Z,8.35
2017-11-09T19:34:20.076Z,8.36
2017-11-09T19:37:06.653Z,8.36
2017-11-09T19:39:54.302Z,8.35
2017-11-09T19:42:38.270Z,8.35
2017-11-09T19:45:26.982Z,8.34
2017-11-09T19:48:11.673Z,8.36
2017-11-09T19:50:53.490Z,8.35
2017-11-09T19:53:37.689Z,8.35
2017-11-09T19:56:24.498Z,8.35
2017-11-09T19:59:07.020Z,8.34
2017-11-09T20:01:52.629Z,8.36
2017-11-09T20:07:20.645Z,8.36
2017-11-09T20:10:06.851Z,8.36
2017-11-09T20:12:50.999Z,8.37
2017-11-09T20:15:35.393Z,8.34
2017-11-09T20:18:21.477Z,8.35
2017-11-09T20:21:07.605Z,8.33
2017-11-09T20:23:56.352Z,8.33
2017-11-09T20:26:41.310Z,8.35
2017-11-09T20:29:26.029Z,8.37
2017-11-09T20:32:09.896Z,8.36
2017-11-09T20:34:53.410Z,8.36
2017-11-09T20:37:34.401Z,8.36
2017-11-09T20:40:13.749Z,8.36
2017-11-09T20:42:56.496Z,8.38
2017-11-09T20:45:40.330Z,8.37
2017-11-09T20:48:23.179Z,8.37
2017-11-09T20:51:04.805Z,8.38
2017-11-09T20:56:34.277Z,8.37
2017-11-09T20:59:14.878Z,8.38
2017-11-09T21:01:44.552Z,8.38
2017-11-09T21:04:14.933Z,8.38
2017-11-09T21:06:43.735Z,8.39
2017-11-09T21:09:12.399Z,8.40
2017-11-09T21:11:41.104Z,8.40
2017-11-09T21:14:09.812Z,8.39
2017-11-09T21:16:41.359Z,8.40
2017-11-09T21:19:22.207Z,8.40
2017-11-09T21:22:07.076Z,8.41
2017-11-09T21:24:43.468Z,8.42
2017-11-09T21:27:18.902Z,8.41
2017-11-09T21:29:49.886Z,8.42
2017-11-09T21:32:20.616Z,8.43
2017-11-09T21:34:53.791Z,8.43
2017-11-09T21:37:26.097Z,8.43
2017-11-09T21:39:57.781Z,8.44
2017-11-09T21:42:28.983Z,8.44
2017-11-09T21:44:59.948Z,8.45
2017-11-09T21:47:30.979Z,8.47
2017-11-09T21:50:02.705Z,8.45
2017-11-09T21:52:32.757Z,8.48
2017-11-09T21:55:03.237Z,8.47
2017-11-09T21:57:33.483Z,8.47
2017-11-09T22:00:08.800Z,8.49
2017-11-09T22:02:37.502Z,8.48
2017-11-09T22:05:06.210Z,8.50
2017-11-09T22:07:34.872Z,8.52
2017-11-09T22:10:03.594Z,8.52
2017-11-09T22:12:32.275Z,8.53
2017-11-09T22:15:01.094Z,8.53
2017-11-09T22:17:30.295Z,8.53
2017-11-09T22:19:58.935Z,8.53
2017-11-09T22:22:27.626Z,8.55
2017-11-09T22:24:56.528Z,8.53
2017-11-09T22:27:25.219Z,8.55
2017-11-09T22:29:54.014Z,8.57
2017-11-09T22:32:22.672Z,8.56
2017-11-09T22:34:51.877Z,8.57
2017-11-09T22:37:20.603Z,8.57
2017-11-09T22:39:49.242Z,8.59
2017-11-09T22:42:17.930Z,8.58
2017-11-09T22:44:46.631Z,8.59
2017-11-09T22:47:15.282Z,8.60
2017-11-09T22:49:46.049Z,8.60
2017-11-09T22:52:16.773Z,8.61
2017-11-09T22:54:45.527Z,8.62
2017-11-09T22:57:14.471Z,8.63
2017-11-09T22:59:43.188Z,8.63
2017-11-09T23:02:11.827Z,8.64
2017-11-09T23:04:40.524Z,8.64
2017-11-09T23:07:10.759Z,8.65
2017-11-09T23:09:39.336Z,8.66
2017-11-09T23:12:07.863Z,8.67
2017-11-09T23:14:36.375Z,8.68
2017-11-09T23:17:11.900Z,8.67
2017-11-09T23:19:40.540Z,8.66
2017-11-09T23:22:09.252Z,8.68
2017-11-09T23:24:37.886Z,8.68
2017-11-09T23:27:09.928Z,8.70
2017-11-09T23:29:39.387Z,8.71
2017-11-09T23:32:08.137Z,8.70
2017-11-09T23:34:36.787Z,8.70
2017-11-09T23:37:09.432Z,8.71
2017-11-09T23:39:38.085Z,8.72
2017-11-09T23:42:06.802Z,8.73
2017-11-09T23:44:35.508Z,8.74
2017-11-09T23:47:08.348Z,8.75
2017-11-09T23:49:37.043Z,8.75
2017-11-09T23:52:05.727Z,8.76
2017-11-09T23:54:34.403Z,8.75
2017-11-09T23:57:07.122Z,8.77
2017-11-09T23:59:35.819Z,8.77
